sensor_id;sensor_type;location;lat;lon;timestamp;P1;durP1;ratioP1;P2;durP2;ratioP2
47089;SDS011;32840;52.516;13.294;2023-08-20T00:02:20;16.50;;;15.00;;
47089;SDS011;32840;52.516;13.294;2023-08-20T00:05:08;16.92;;;15.15;;
47089;SDS011;32840;52.516;13.294;2023-08-20T00:07:53;16.20;;;14.70;;
47089;SDS011;32840;52.516;13.294;2023-08-20T00:10:38;16.00;;;14.50;;
47089;SDS011;32840;52.516;13.294;2023-08-20T00:13:23;17.73;;;15.88;;
47089;SDS011;32840;52.516;13.294;2023-08-20T00:16:08;16.92;;;15.25;;
47089;SDS011;32840;52.516;13.294;2023-08-20T00:18:54;16.63;;;14.98;;
47089;SDS011;32840;52.516;13.294;2023-08-20T00:21:42;17.85;;;15.38;;
47089;SDS011;32840;52.516;13.294;2023-08-20T00:24:28;16.07;;;14.47;;
47089;SDS011;32840;52.516;13.294;2023-08-20T00:27:13;15.65;;;13.82;;
47089;SDS011;32840;52.516;13.294;2023-08-20T00:29:58;18.92;;;15.70;;
47089;SDS011;32840;52.516;13.294;2023-08-20T00:32:43;16.05;;;14.35;;
47089;SDS011;32840;52.516;13.294;2023-08-20T00:35:28;16.35;;;13.98;;
47089;SDS011;32840;52.516;13.294;2023-08-20T00:38:13;15.40;;;13.88;;
47089;SDS011;32840;52.516;13.294;2023-08-20T00:40:58;15.98;;;14.23;;
47089;SDS011;32840;52.516;13.294;2023-08-20T00:43:43;17.42;;;15.25;;
47089;SDS011;32840;52.516;13.294;2023-08-20T00:46:28;16.13;;;14.68;;
47089;SDS011;32840;52.516;13.294;2023-08-20T00:49:14;15.90;;;14.30;;
47089;SDS011;32840;52.516;13.294;2023-08-20T00:51:59;16.75;;;13.90;;
47089;SDS011;32840;52.516;13.294;2023-08-20T00:54:46;16.02;;;14.52;;
47089;SDS011;32840;52.516;13.294;2023-08-20T00:57:32;15.05;;;13.52;;
47089;SDS011;32840;52.516;13.294;2023-08-20T01:00:17;16.25;;;14.55;;
47089;SDS011;32840;52.516;13.294;2023-08-20T01:03:03;16.13;;;13.88;;
47089;SDS011;32840;52.516;13.294;2023-08-20T01:05:50;15.65;;;13.98;;
47089;SDS011;32840;52.516;13.294;2023-08-20T01:08:44;17.23;;;14.73;;
47089;SDS011;32840;52.516;13.294;2023-08-20T01:11:37;17.33;;;14.93;;
47089;SDS011;32840;52.516;13.294;2023-08-20T01:14:29;15.32;;;13.25;;
47089;SDS011;32840;52.516;13.294;2023-08-20T01:17:14;16.35;;;14.65;;
47089;SDS011;32840;52.516;13.294;2023-08-20T01:19:58;19.13;;;14.73;;
47089;SDS011;32840;52.516;13.294;2023-08-20T01:25:39;16.65;;;14.43;;
47089;SDS011;32840;52.516;13.294;2023-08-20T01:28:34;16.02;;;14.25;;
47089;SDS011;32840;52.516;13.294;2023-08-20T01:31:20;18.85;;;13.73;;
47089;SDS011;32840;52.516;13.294;2023-08-20T01:34:05;17.58;;;14.60;;
47089;SDS011;32840;52.516;13.294;2023-08-20T01:36:50;16.58;;;14.65;;
47089;SDS011;32840;52.516;13.294;2023-08-20T01:39:35;15.82;;;14.18;;
47089;SDS011;32840;52.516;13.294;2023-08-20T01:42:20;17.73;;;14.02;;
47089;SDS011;32840;52.516;13.294;2023-08-20T01:45:05;15.52;;;14.07;;
47089;SDS011;32840;52.516;13.294;2023-08-20T01:47:51;16.00;;;13.73;;
47089;SDS011;32840;52.516;13.294;2023-08-20T01:50:36;18.35;;;13.93;;
47089;SDS011;32840;52.516;13.294;2023-08-20T01:53:21;17.05;;;13.82;;
47089;SDS011;32840;52.516;13.294;2023-08-20T01:56:12;14.90;;;13.50;;
47089;SDS011;32840;52.516;13.294;2023-08-20T01:58:58;14.68;;;13.18;;
47089;SDS011;32840;52.516;13.294;2023-08-20T02:01:46;18.40;;;13.13;;
47089;SDS011;32840;52.516;13.294;2023-08-20T02:04:31;18.02;;;13.20;;
47089;SDS011;32840;52.516;13.294;2023-08-20T02:07:16;18.23;;;13.68;;
47089;SDS011;32840;52.516;13.294;2023-08-20T02:10:04;16.88;;;14.43;;
47089;SDS011;32840;52.516;13.294;2023-08-20T02:12:49;17.65;;;12.85;;
47089;SDS011;32840;52.516;13.294;2023-08-20T02:15:34;15.95;;;13.07;;
47089;SDS011;32840;52.516;13.294;2023-08-20T02:18:19;17.48;;;13.38;;
47089;SDS011;32840;52.516;13.294;2023-08-20T02:21:04;18.50;;;12.82;;
47089;SDS011;32840;52.516;13.294;2023-08-20T02:23:49;17.27;;;13.25;;
47089;SDS011;32840;52.516;13.294;2023-08-20T02:26:34;15.30;;;13.00;;
47089;SDS011;32840;52.516;13.294;2023-08-20T02:29:21;14.32;;;12.90;;
47089;SDS011;32840;52.516;13.294;2023-08-20T02:32:06;20.90;;;12.32;;
47089;SDS011;32840;52.516;13.294;2023-08-20T02:34:51;16.67;;;11.98;;
47089;SDS011;32840;52.516;13.294;2023-08-20T02:37:37;15.85;;;12.18;;
47089;SDS011;32840;52.516;13.294;2023-08-20T02:40:22;15.18;;;12.25;;
47089;SDS011;32840;52.516;13.294;2023-08-20T02:43:07;16.35;;;12.20;;
47089;SDS011;32840;52.516;13.294;2023-08-20T02:45:52;12.60;;;11.30;;
47089;SDS011;32840;52.516;13.294;2023-08-20T02:48:37;14.35;;;12.23;;
47089;SDS011;32840;52.516;13.294;2023-08-20T02:51:22;12.60;;;11.30;;
47089;SDS011;32840;52.516;13.294;2023-08-20T02:54:08;12.80;;;11.20;;
47089;SDS011;32840;52.516;13.294;2023-08-20T02:56:53;14.55;;;11.13;;
47089;SDS011;32840;52.516;13.294;2023-08-20T02:59:38;13.32;;;11.23;;
47089;SDS011;32840;52.516;13.294;2023-08-20T03:02:23;13.57;;;11.23;;
47089;SDS011;32840;52.516;13.294;2023-08-20T03:05:08;12.35;;;10.77;;
47089;SDS011;32840;52.516;13.294;2023-08-20T03:07:54;13.50;;;11.23;;
47089;SDS011;32840;52.516;13.294;2023-08-20T03:10:39;13.98;;;11.43;;
47089;SDS011;32840;52.516;13.294;2023-08-20T03:13:24;14.88;;;12.07;;
47089;SDS011;32840;52.516;13.294;2023-08-20T03:16:09;15.32;;;12.15;;
47089;SDS011;32840;52.516;13.294;2023-08-20T03:18:53;13.02;;;11.73;;
47089;SDS011;32840;52.516;13.294;2023-08-20T03:21:39;14.98;;;12.65;;
47089;SDS011;32840;52.516;13.294;2023-08-20T03:24:24;18.30;;;12.38;;
47089;SDS011;32840;52.516;13.294;2023-08-20T03:27:09;17.02;;;12.77;;
47089;SDS011;32840;52.516;13.294;2023-08-20T03:29:54;16.77;;;12.63;;
47089;SDS011;32840;52.516;13.294;2023-08-20T03:32:38;14.50;;;12.52;;
47089;SDS011;32840;52.516;13.294;2023-08-20T03:35:23;15.98;;;12.27;;
47089;SDS011;32840;52.516;13.294;2023-08-20T03:38:08;15.32;;;12.55;;
47089;SDS011;32840;52.516;13.294;2023-08-20T03:40:54;15.73;;;12.82;;
47089;SDS011;32840;52.516;13.294;2023-08-20T03:43:40;14.38;;;12.15;;
47089;SDS011;32840;52.516;13.294;2023-08-20T03:46:25;17.30;;;13.02;;
47089;SDS011;32840;52.516;13.294;2023-08-20T03:49:10;14.93;;;13.07;;
47089;SDS011;32840;52.516;13.294;2023-08-20T03:51:54;16.27;;;12.38;;
47089;SDS011;32840;52.516;13.294;2023-08-20T03:54:39;15.10;;;13.50;;
47089;SDS011;32840;52.516;13.294;2023-08-20T03:57:24;17.42;;;13.85;;
47089;SDS011;32840;52.516;13.294;2023-08-20T04:00:10;15.63;;;12.52;;
47089;SDS011;32840;52.516;13.294;2023-08-20T04:02:56;13.57;;;12.18;;
47089;SDS011;32840;52.516;13.294;2023-08-20T04:05:41;15.77;;;12.48;;
47089;SDS011;32840;52.516;13.294;2023-08-20T04:08:26;15.25;;;13.65;;
47089;SDS011;32840;52.516;13.294;2023-08-20T04:11:11;15.80;;;14.10;;
47089;SDS011;32840;52.516;13.294;2023-08-20T04:13:56;15.75;;;13.73;;
47089;SDS011;32840;52.516;13.294;2023-08-20T04:16:41;16.83;;;12.88;;
47089;SDS011;32840;52.516;13.294;2023-08-20T04:19:26;15.40;;;13.30;;
47089;SDS011;32840;52.516;13.294;2023-08-20T04:22:11;16.33;;;14.18;;
47089;SDS011;32840;52.516;13.294;2023-08-20T04:24:56;16.20;;;14.07;;
47089;SDS011;32840;52.516;13.294;2023-08-20T04:27:41;15.80;;;14.18;;
47089;SDS011;32840;52.516;13.294;2023-08-20T04:30:26;15.50;;;13.38;;
47089;SDS011;32840;52.516;13.294;2023-08-20T04:33:11;17.17;;;14.55;;
47089;SDS011;32840;52.516;13.294;2023-08-20T04:35:56;18.08;;;14.80;;
47089;SDS011;32840;52.516;13.294;2023-08-20T04:38:40;17.40;;;15.60;;
47089;SDS011;32840;52.516;13.294;2023-08-20T04:41:25;16.77;;;14.23;;
47089;SDS011;32840;52.516;13.294;2023-08-20T04:44:10;17.67;;;14.63;;
47089;SDS011;32840;52.516;13.294;2023-08-20T04:47:03;20.27;;;16.50;;
47089;SDS011;32840;52.516;13.294;2023-08-20T04:50:05;23.80;;;16.75;;
47089;SDS011;32840;52.516;13.294;2023-08-20T04:52:52;17.80;;;15.85;;
47089;SDS011;32840;52.516;13.294;2023-08-20T04:55:37;18.80;;;16.83;;
47089;SDS011;32840;52.516;13.294;2023-08-20T04:58:22;18.30;;;16.30;;
47089;SDS011;32840;52.516;13.294;2023-08-20T05:01:07;19.77;;;16.08;;
47089;SDS011;32840;52.516;13.294;2023-08-20T05:03:52;18.52;;;16.05;;
47089;SDS011;32840;52.516;13.294;2023-08-20T05:06:38;18.90;;;16.17;;
47089;SDS011;32840;52.516;13.294;2023-08-20T05:09:23;19.63;;;15.70;;
47089;SDS011;32840;52.516;13.294;2023-08-20T05:12:08;21.23;;;17.55;;
47089;SDS011;32840;52.516;13.294;2023-08-20T05:14:53;20.10;;;17.23;;
47089;SDS011;32840;52.516;13.294;2023-08-20T05:17:38;19.52;;;17.08;;
47089;SDS011;32840;52.516;13.294;2023-08-20T05:20:23;23.88;;;18.25;;
47089;SDS011;32840;52.516;13.294;2023-08-20T05:23:08;22.30;;;16.85;;
47089;SDS011;32840;52.516;13.294;2023-08-20T05:25:53;20.17;;;16.38;;
47089;SDS011;32840;52.516;13.294;2023-08-20T05:28:38;20.85;;;17.02;;
47089;SDS011;32840;52.516;13.294;2023-08-20T05:31:23;19.23;;;17.13;;
47089;SDS011;32840;52.516;13.294;2023-08-20T05:34:08;18.10;;;16.10;;
47089;SDS011;32840;52.516;13.294;2023-08-20T05:36:53;22.42;;;18.63;;
47089;SDS011;32840;52.516;13.294;2023-08-20T05:39:43;18.80;;;15.60;;
47089;SDS011;32840;52.516;13.294;2023-08-20T05:42:28;21.67;;;16.05;;
47089;SDS011;32840;52.516;13.294;2023-08-20T05:45:13;21.27;;;17.45;;
47089;SDS011;32840;52.516;13.294;2023-08-20T05:47:58;20.15;;;16.83;;
47089;SDS011;32840;52.516;13.294;2023-08-20T05:50:44;22.58;;;18.23;;
47089;SDS011;32840;52.516;13.294;2023-08-20T05:53:29;22.73;;;17.73;;
47089;SDS011;32840;52.516;13.294;2023-08-20T05:56:14;18.27;;;16.35;;
47089;SDS011;32840;52.516;13.294;2023-08-20T05:58:59;18.52;;;16.52;;
47089;SDS011;32840;52.516;13.294;2023-08-20T06:01:43;21.85;;;16.77;;
47089;SDS011;32840;52.516;13.294;2023-08-20T06:04:29;19.52;;;16.50;;
47089;SDS011;32840;52.516;13.294;2023-08-20T06:07:14;20.05;;;16.13;;
47089;SDS011;32840;52.516;13.294;2023-08-20T06:09:59;18.75;;;16.27;;
47089;SDS011;32840;52.516;13.294;2023-08-20T06:12:44;18.98;;;15.48;;
47089;SDS011;32840;52.516;13.294;2023-08-20T06:15:30;17.63;;;15.68;;
47089;SDS011;32840;52.516;13.294;2023-08-20T06:18:14;21.10;;;14.82;;
47089;SDS011;32840;52.516;13.294;2023-08-20T06:20:59;17.95;;;15.50;;
47089;SDS011;32840;52.516;13.294;2023-08-20T06:23:44;18.38;;;15.60;;
47089;SDS011;32840;52.516;13.294;2023-08-20T06:26:29;17.00;;;14.40;;
47089;SDS011;32840;52.516;13.294;2023-08-20T06:29:14;17.23;;;15.18;;
47089;SDS011;32840;52.516;13.294;2023-08-20T06:31:59;20.52;;;14.32;;
47089;SDS011;32840;52.516;13.294;2023-08-20T06:34:44;16.85;;;14.48;;
47089;SDS011;32840;52.516;13.294;2023-08-20T06:37:29;20.40;;;15.05;;
47089;SDS011;32840;52.516;13.294;2023-08-20T06:40:14;21.63;;;14.18;;
47089;SDS011;32840;52.516;13.294;2023-08-20T06:42:59;20.83;;;14.48;;
47089;SDS011;32840;52.516;13.294;2023-08-20T06:45:44;19.55;;;14.38;;
47089;SDS011;32840;52.516;13.294;2023-08-20T06:48:30;18.15;;;13.88;;
47089;SDS011;32840;52.516;13.294;2023-08-20T06:51:15;17.98;;;15.10;;
47089;SDS011;32840;52.516;13.294;2023-08-20T06:54:03;15.43;;;13.38;;
47089;SDS011;32840;52.516;13.294;2023-08-20T06:56:50;18.58;;;14.75;;
47089;SDS011;32840;52.516;13.294;2023-08-20T06:59:35;16.45;;;13.80;;
47089;SDS011;32840;52.516;13.294;2023-08-20T07:02:20;15.73;;;13.00;;
47089;SDS011;32840;52.516;13.294;2023-08-20T07:05:05;20.00;;;14.38;;
47089;SDS011;32840;52.516;13.294;2023-08-20T07:07:53;17.77;;;14.23;;
47089;SDS011;32840;52.516;13.294;2023-08-20T07:10:38;19.42;;;14.55;;
47089;SDS011;32840;52.516;13.294;2023-08-20T07:13:23;16.92;;;13.73;;
47089;SDS011;32840;52.516;13.294;2023-08-20T07:16:08;21.98;;;15.05;;
47089;SDS011;32840;52.516;13.294;2023-08-20T07:18:54;18.00;;;13.82;;
47089;SDS011;32840;52.516;13.294;2023-08-20T07:21:39;18.27;;;12.85;;
47089;SDS011;32840;52.516;13.294;2023-08-20T07:24:24;16.27;;;12.40;;
47089;SDS011;32840;52.516;13.294;2023-08-20T07:27:13;15.25;;;12.60;;
47089;SDS011;32840;52.516;13.294;2023-08-20T07:29:58;12.63;;;10.93;;
47089;SDS011;32840;52.516;13.294;2023-08-20T07:32:43;12.30;;;10.68;;
47089;SDS011;32840;52.516;13.294;2023-08-20T07:35:28;12.73;;;11.40;;
47089;SDS011;32840;52.516;13.294;2023-08-20T07:38:14;11.65;;;10.43;;
47089;SDS011;32840;52.516;13.294;2023-08-20T07:40:59;15.57;;;10.93;;
47089;SDS011;32840;52.516;13.294;2023-08-20T07:43:44;11.45;;;10.38;;
47089;SDS011;32840;52.516;13.294;2023-08-20T07:46:29;15.18;;;10.35;;
47089;SDS011;32840;52.516;13.294;2023-08-20T07:49:13;11.48;;;9.05;;
47089;SDS011;32840;52.516;13.294;2023-08-20T07:51:58;11.07;;;8.90;;
47089;SDS011;32840;52.516;13.294;2023-08-20T07:54:43;10.90;;;8.63;;
47089;SDS011;32840;52.516;13.294;2023-08-20T07:57:28;11.50;;;7.97;;
47089;SDS011;32840;52.516;13.294;2023-08-20T08:00:13;10.60;;;7.88;;
47089;SDS011;32840;52.516;13.294;2023-08-20T08:02:59;11.63;;;7.88;;
47089;SDS011;32840;52.516;13.294;2023-08-20T08:05:47;11.82;;;7.75;;
47089;SDS011;32840;52.516;13.294;2023-08-20T08:08:32;8.63;;;7.30;;
47089;SDS011;32840;52.516;13.294;2023-08-20T08:11:17;8.95;;;7.13;;
47089;SDS011;32840;52.516;13.294;2023-08-20T08:14:02;8.43;;;6.90;;
47089;SDS011;32840;52.516;13.294;2023-08-20T08:16:47;9.98;;;7.18;;
47089;SDS011;32840;52.516;13.294;2023-08-20T08:19:32;8.68;;;7.00;;
47089;SDS011;32840;52.516;13.294;2023-08-20T08:22:17;7.18;;;6.47;;
47089;SDS011;32840;52.516;13.294;2023-08-20T08:25:03;7.60;;;6.20;;
47089;SDS011;32840;52.516;13.294;2023-08-20T08:27:51;9.02;;;6.47;;
47089;SDS011;32840;52.516;13.294;2023-08-20T08:30:37;8.15;;;5.97;;
47089;SDS011;32840;52.516;13.294;2023-08-20T08:33:24;9.00;;;6.43;;
47089;SDS011;32840;52.516;13.294;2023-08-20T08:36:09;8.10;;;5.63;;
47089;SDS011;32840;52.516;13.294;2023-08-20T08:38:55;7.30;;;5.85;;
47089;SDS011;32840;52.516;13.294;2023-08-20T08:41:40;18.00;;;5.60;;
47089;SDS011;32840;52.516;13.294;2023-08-20T08:44:27;6.68;;;5.00;;
47089;SDS011;32840;52.516;13.294;2023-08-20T08:47:12;10.85;;;5.03;;
47089;SDS011;32840;52.516;13.294;2023-08-20T08:49:57;5.90;;;4.80;;
47089;SDS011;32840;52.516;13.294;2023-08-20T08:52:42;8.10;;;4.70;;
47089;SDS011;32840;52.516;13.294;2023-08-20T08:55:31;7.05;;;4.65;;
47089;SDS011;32840;52.516;13.294;2023-08-20T08:58:16;6.85;;;6.15;;
47089;SDS011;32840;52.516;13.294;2023-08-20T09:01:01;7.70;;;4.68;;
47089;SDS011;32840;52.516;13.294;2023-08-20T09:03:47;6.65;;;4.88;;
47089;SDS011;32840;52.516;13.294;2023-08-20T09:06:45;4.90;;;4.13;;
47089;SDS011;32840;52.516;13.294;2023-08-20T09:09:34;7.50;;;4.00;;
47089;SDS011;32840;52.516;13.294;2023-08-20T09:12:19;5.95;;;4.15;;
47089;SDS011;32840;52.516;13.294;2023-08-20T09:15:05;6.50;;;4.13;;
47089;SDS011;32840;52.516;13.294;2023-08-20T09:17:56;8.02;;;4.47;;
47089;SDS011;32840;52.516;13.294;2023-08-20T09:20:41;8.32;;;4.63;;
47089;SDS011;32840;52.516;13.294;2023-08-20T09:23:28;5.78;;;4.13;;
47089;SDS011;32840;52.516;13.294;2023-08-20T09:26:14;4.47;;;3.30;;
47089;SDS011;32840;52.516;13.294;2023-08-20T09:28:59;4.25;;;3.00;;
47089;SDS011;32840;52.516;13.294;2023-08-20T09:31:43;5.35;;;3.70;;
47089;SDS011;32840;52.516;13.294;2023-08-20T09:34:38;4.32;;;3.17;;
47089;SDS011;32840;52.516;13.294;2023-08-20T09:37:24;5.32;;;3.67;;
47089;SDS011;32840;52.516;13.294;2023-08-20T09:40:09;4.90;;;3.75;;
47089;SDS011;32840;52.516;13.294;2023-08-20T09:42:54;4.65;;;3.25;;
47089;SDS011;32840;52.516;13.294;2023-08-20T09:45:40;3.90;;;3.30;;
47089;SDS011;32840;52.516;13.294;2023-08-20T09:48:27;5.05;;;3.35;;
47089;SDS011;32840;52.516;13.294;2023-08-20T09:51:19;4.90;;;3.15;;
47089;SDS011;32840;52.516;13.294;2023-08-20T09:57:02;5.18;;;2.85;;
47089;SDS011;32840;52.516;13.294;2023-08-20T09:59:55;5.80;;;2.85;;
47089;SDS011;32840;52.516;13.294;2023-08-20T10:02:41;3.55;;;2.58;;
47089;SDS011;32840;52.516;13.294;2023-08-20T10:05:26;6.22;;;3.10;;
47089;SDS011;32840;52.516;13.294;2023-08-20T10:08:11;8.23;;;6.32;;
47089;SDS011;32840;52.516;13.294;2023-08-20T10:10:57;6.07;;;2.90;;
47089;SDS011;32840;52.516;13.294;2023-08-20T10:13:42;4.57;;;2.60;;
47089;SDS011;32840;52.516;13.294;2023-08-20T10:16:30;4.07;;;2.75;;
47089;SDS011;32840;52.516;13.294;2023-08-20T10:19:17;4.85;;;2.85;;
47089;SDS011;32840;52.516;13.294;2023-08-20T10:22:04;3.17;;;2.30;;
47089;SDS011;32840;52.516;13.294;2023-08-20T10:24:51;3.72;;;2.50;;
47089;SDS011;32840;52.516;13.294;2023-08-20T10:27:40;4.32;;;2.30;;
47089;SDS011;32840;52.516;13.294;2023-08-20T10:30:27;2.80;;;2.10;;
47089;SDS011;32840;52.516;13.294;2023-08-20T10:33:12;4.70;;;3.20;;
47089;SDS011;32840;52.516;13.294;2023-08-20T10:35:59;9.20;;;3.20;;
47089;SDS011;32840;52.516;13.294;2023-08-20T10:38:52;3.58;;;2.85;;
47089;SDS011;32840;52.516;13.294;2023-08-20T10:41:39;4.53;;;3.22;;
47089;SDS011;32840;52.516;13.294;2023-08-20T10:44:24;3.25;;;2.17;;
47089;SDS011;32840;52.516;13.294;2023-08-20T10:47:09;4.68;;;3.13;;
47089;SDS011;32840;52.516;13.294;2023-08-20T10:50:00;4.15;;;2.92;;
47089;SDS011;32840;52.516;13.294;2023-08-20T10:52:47;5.90;;;3.65;;
47089;SDS011;32840;52.516;13.294;2023-08-20T10:55:33;4.70;;;2.53;;
47089;SDS011;32840;52.516;13.294;2023-08-20T10:58:19;6.53;;;3.88;;
47089;SDS011;32840;52.516;13.294;2023-08-20T11:01:15;4.47;;;2.80;;
47089;SDS011;32840;52.516;13.294;2023-08-20T11:04:02;3.92;;;2.25;;
47089;SDS011;32840;52.516;13.294;2023-08-20T11:06:58;3.38;;;2.55;;
47089;SDS011;32840;52.516;13.294;2023-08-20T11:09:43;6.07;;;3.22;;
47089;SDS011;32840;52.516;13.294;2023-08-20T11:12:30;4.28;;;2.50;;
47089;SDS011;32840;52.516;13.294;2023-08-20T11:15:15;9.18;;;3.50;;
47089;SDS011;32840;52.516;13.294;2023-08-20T11:18:00;6.25;;;2.92;;
47089;SDS011;32840;52.516;13.294;2023-08-20T11:20:45;4.07;;;2.65;;
47089;SDS011;32840;52.516;13.294;2023-08-20T11:23:31;3.17;;;2.30;;
47089;SDS011;32840;52.516;13.294;2023-08-20T11:26:17;4.55;;;2.38;;
47089;SDS011;32840;52.516;13.294;2023-08-20T11:29:06;6.88;;;3.25;;
47089;SDS011;32840;52.516;13.294;2023-08-20T11:31:51;6.13;;;2.85;;
47089;SDS011;32840;52.516;13.294;2023-08-20T11:34:36;6.53;;;3.55;;
47089;SDS011;32840;52.516;13.294;2023-08-20T11:37:22;5.93;;;2.42;;
47089;SDS011;32840;52.516;13.294;2023-08-20T11:40:08;3.17;;;2.40;;
47089;SDS011;32840;52.516;13.294;2023-08-20T11:42:53;5.88;;;2.58;;
47089;SDS011;32840;52.516;13.294;2023-08-20T11:45:48;6.00;;;2.60;;
47089;SDS011;32840;52.516;13.294;2023-08-20T11:48:36;6.43;;;2.63;;
47089;SDS011;32840;52.516;13.294;2023-08-20T11:51:21;7.68;;;3.20;;
47089;SDS011;32840;52.516;13.294;2023-08-20T11:54:16;11.38;;;4.78;;
47089;SDS011;32840;52.516;13.294;2023-08-20T11:57:02;5.85;;;2.53;;
47089;SDS011;32840;52.516;13.294;2023-08-20T11:59:48;4.55;;;2.83;;
47089;SDS011;32840;52.516;13.294;2023-08-20T12:02:33;4.95;;;2.20;;
47089;SDS011;32840;52.516;13.294;2023-08-20T12:05:18;4.57;;;1.90;;
47089;SDS011;32840;52.516;13.294;2023-08-20T12:08:03;3.80;;;2.10;;
47089;SDS011;32840;52.516;13.294;2023-08-20T12:10:49;6.53;;;2.88;;
47089;SDS011;32840;52.516;13.294;2023-08-20T12:13:33;3.92;;;2.20;;
47089;SDS011;32840;52.516;13.294;2023-08-20T12:16:21;6.05;;;1.95;;
47089;SDS011;32840;52.516;13.294;2023-08-20T12:19:08;3.25;;;2.28;;
47089;SDS011;32840;52.516;13.294;2023-08-20T12:21:53;13.55;;;10.80;;
47089;SDS011;32840;52.516;13.294;2023-08-20T12:24:38;7.53;;;5.50;;
47089;SDS011;32840;52.516;13.294;2023-08-20T12:27:23;4.78;;;2.38;;
47089;SDS011;32840;52.516;13.294;2023-08-20T12:30:09;8.02;;;3.47;;
47089;SDS011;32840;52.516;13.294;2023-08-20T12:32:54;9.30;;;4.25;;
47089;SDS011;32840;52.516;13.294;2023-08-20T12:35:39;3.40;;;2.15;;
47089;SDS011;32840;52.516;13.294;2023-08-20T12:38:24;6.78;;;4.82;;
47089;SDS011;32840;52.516;13.294;2023-08-20T12:41:09;12.10;;;9.90;;
47089;SDS011;32840;52.516;13.294;2023-08-20T12:43:54;5.10;;;2.38;;
47089;SDS011;32840;52.516;13.294;2023-08-20T12:46:39;6.10;;;1.75;;
47089;SDS011;32840;52.516;13.294;2023-08-20T12:49:24;3.95;;;1.50;;
47089;SDS011;32840;52.516;13.294;2023-08-20T12:52:08;9.68;;;2.22;;
47089;SDS011;32840;52.516;13.294;2023-08-20T12:54:53;13.77;;;2.20;;
47089;SDS011;32840;52.516;13.294;2023-08-20T12:57:51;3.03;;;1.13;;
47089;SDS011;32840;52.516;13.294;2023-08-20T13:00:37;3.38;;;1.80;;
47089;SDS011;32840;52.516;13.294;2023-08-20T13:03:23;3.30;;;1.70;;
47089;SDS011;32840;52.516;13.294;2023-08-20T13:06:09;6.57;;;1.60;;
47089;SDS011;32840;52.516;13.294;2023-08-20T13:08:55;5.32;;;1.55;;
47089;SDS011;32840;52.516;13.294;2023-08-20T13:11:40;3.42;;;1.58;;
47089;SDS011;32840;52.516;13.294;2023-08-20T13:14:29;5.47;;;1.60;;
47089;SDS011;32840;52.516;13.294;2023-08-20T13:17:14;5.65;;;1.70;;
47089;SDS011;32840;52.516;13.294;2023-08-20T13:19:59;3.38;;;1.35;;
47089;SDS011;32840;52.516;13.294;2023-08-20T13:22:44;3.60;;;1.90;;
47089;SDS011;32840;52.516;13.294;2023-08-20T13:25:29;4.45;;;1.92;;
47089;SDS011;32840;52.516;13.294;2023-08-20T13:28:15;4.93;;;1.92;;
47089;SDS011;32840;52.516;13.294;2023-08-20T13:30:59;3.25;;;1.70;;
47089;SDS011;32840;52.516;13.294;2023-08-20T13:33:44;8.85;;;2.28;;
47089;SDS011;32840;52.516;13.294;2023-08-20T13:36:31;4.35;;;2.13;;
47089;SDS011;32840;52.516;13.294;2023-08-20T13:39:15;3.28;;;1.73;;
47089;SDS011;32840;52.516;13.294;2023-08-20T13:42:05;2.70;;;1.40;;
47089;SDS011;32840;52.516;13.294;2023-08-20T13:44:50;3.97;;;1.63;;
47089;SDS011;32840;52.516;13.294;2023-08-20T13:47:35;8.77;;;2.30;;
47089;SDS011;32840;52.516;13.294;2023-08-20T13:50:20;3.88;;;1.80;;
47089;SDS011;32840;52.516;13.294;2023-08-20T13:53:05;9.52;;;3.28;;
47089;SDS011;32840;52.516;13.294;2023-08-20T13:55:50;5.35;;;1.75;;
47089;SDS011;32840;52.516;13.294;2023-08-20T13:58:35;8.18;;;2.05;;
47089;SDS011;32840;52.516;13.294;2023-08-20T14:01:19;5.60;;;3.67;;
47089;SDS011;32840;52.516;13.294;2023-08-20T14:04:04;6.30;;;2.00;;
47089;SDS011;32840;52.516;13.294;2023-08-20T14:06:49;21.80;;;15.18;;
47089;SDS011;32840;52.516;13.294;2023-08-20T14:09:34;5.13;;;1.85;;
47089;SDS011;32840;52.516;13.294;2023-08-20T14:12:21;6.90;;;1.70;;
47089;SDS011;32840;52.516;13.294;2023-08-20T14:15:06;7.40;;;2.03;;
47089;SDS011;32840;52.516;13.294;2023-08-20T14:17:52;8.60;;;2.63;;
47089;SDS011;32840;52.516;13.294;2023-08-20T14:20:37;5.05;;;2.17;;
47089;SDS011;32840;52.516;13.294;2023-08-20T14:23:22;4.22;;;1.40;;
47089;SDS011;32840;52.516;13.294;2023-08-20T14:26:07;7.28;;;5.05;;
47089;SDS011;32840;52.516;13.294;2023-08-20T14:28:52;3.22;;;1.48;;
47089;SDS011;32840;52.516;13.294;2023-08-20T14:31:37;2.10;;;1.10;;
47089;SDS011;32840;52.516;13.294;2023-08-20T14:34:23;2.80;;;1.20;;
47089;SDS011;32840;52.516;13.294;2023-08-20T14:37:08;3.17;;;1.25;;
47089;SDS011;32840;52.516;13.294;2023-08-20T14:39:54;3.30;;;1.27;;
47089;SDS011;32840;52.516;13.294;2023-08-20T14:42:39;3.58;;;1.20;;
47089;SDS011;32840;52.516;13.294;2023-08-20T14:45:25;3.70;;;1.25;;
47089;SDS011;32840;52.516;13.294;2023-08-20T14:48:10;4.90;;;1.65;;
47089;SDS011;32840;52.516;13.294;2023-08-20T14:50:56;3.15;;;1.30;;
47089;SDS011;32840;52.516;13.294;2023-08-20T14:53:41;4.32;;;1.55;;
47089;SDS011;32840;52.516;13.294;2023-08-20T14:56:26;10.57;;;7.25;;
47089;SDS011;32840;52.516;13.294;2023-08-20T14:59:11;17.45;;;13.45;;
47089;SDS011;32840;52.516;13.294;2023-08-20T15:01:56;7.63;;;5.07;;
47089;SDS011;32840;52.516;13.294;2023-08-20T15:04:41;5.70;;;2.08;;
47089;SDS011;32840;52.516;13.294;2023-08-20T15:07:26;3.28;;;1.90;;
47089;SDS011;32840;52.516;13.294;2023-08-20T15:10:11;11.48;;;6.80;;
47089;SDS011;32840;52.516;13.294;2023-08-20T15:12:58;5.10;;;2.00;;
47089;SDS011;32840;52.516;13.294;2023-08-20T15:15:43;4.32;;;1.50;;
47089;SDS011;32840;52.516;13.294;2023-08-20T15:18:28;5.03;;;1.75;;
47089;SDS011;32840;52.516;13.294;2023-08-20T15:21:13;2.40;;;1.35;;
47089;SDS011;32840;52.516;13.294;2023-08-20T15:23:58;4.13;;;1.92;;
47089;SDS011;32840;52.516;13.294;2023-08-20T15:26:44;4.18;;;1.60;;
47089;SDS011;32840;52.516;13.294;2023-08-20T15:29:30;3.53;;;1.50;;
47089;SDS011;32840;52.516;13.294;2023-08-20T15:32:14;2.97;;;1.13;;
47089;SDS011;32840;52.516;13.294;2023-08-20T15:35:00;5.93;;;2.38;;
47089;SDS011;32840;52.516;13.294;2023-08-20T15:37:47;5.07;;;2.40;;
47089;SDS011;32840;52.516;13.294;2023-08-20T15:40:33;4.03;;;2.03;;
47089;SDS011;32840;52.516;13.294;2023-08-20T15:43:18;18.92;;;13.43;;
47089;SDS011;32840;52.516;13.294;2023-08-20T15:46:06;4.47;;;2.42;;
47089;SDS011;32840;52.516;13.294;2023-08-20T15:48:52;5.35;;;1.90;;
47089;SDS011;32840;52.516;13.294;2023-08-20T15:51:37;14.82;;;9.00;;
47089;SDS011;32840;52.516;13.294;2023-08-20T15:54:22;14.70;;;9.85;;
47089;SDS011;32840;52.516;13.294;2023-08-20T15:57:09;5.00;;;3.90;;
47089;SDS011;32840;52.516;13.294;2023-08-20T15:59:55;5.20;;;3.25;;
47089;SDS011;32840;52.516;13.294;2023-08-20T16:02:41;9.35;;;6.25;;
47089;SDS011;32840;52.516;13.294;2023-08-20T16:05:29;6.90;;;4.38;;
47089;SDS011;32840;52.516;13.294;2023-08-20T16:08:14;11.25;;;8.68;;
47089;SDS011;32840;52.516;13.294;2023-08-20T16:10:59;10.55;;;8.45;;
47089;SDS011;32840;52.516;13.294;2023-08-20T16:13:44;4.70;;;1.58;;
47089;SDS011;32840;52.516;13.294;2023-08-20T16:16:30;6.75;;;2.45;;